createdAt,value
2022-11-12T00:00:16.857Z,5.01
2022-11-12T00:02:50.104Z,5.00
2022-11-12T00:03:41.260Z,5.00
2022-11-12T00:04:33.089Z,5.02
2022-11-12T00:06:23.201Z,5.00
2022-11-12T00:07:23.290Z,5.05
2022-11-12T00:08:05.975Z,5.02
2022-11-12T00:09:40.667Z,4.97
2022-11-12T00:09:54.542Z,4.94
2022-11-12T00:10:48.394Z,4.94
2022-11-12T00:11:33.455Z,4.93
2022-11-12T00:12:56.082Z,4.93
2022-11-12T00:13:45.473Z,4.93
2022-11-12T00:15:31.283Z,4.92
2022-11-12T00:17:35.330Z,4.89
2022-11-12T00:20:53.637Z,4.83
2022-11-12T00:21:39.147Z,4.81
2022-11-12T00:22:31.490Z,4.81
2022-11-12T00:23:21.032Z,4.80
2022-11-12T00:24:16.096Z,4.79
2022-11-12T00:26:16.958Z,4.76
2022-11-12T00:27:15.897Z,4.76
2022-11-12T00:28:15.716Z,4.75
2022-11-12T00:29:29.019Z,4.75
2022-11-12T00:30:15.678Z,4.80
2022-11-12T00:31:23.230Z,4.74
2022-11-12T00:32:10.576Z,4.76
2022-11-12T00:33:08.119Z,4.73
2022-11-12T00:34:06.274Z,4.74
2022-11-12T00:35:02.451Z,4.72
2022-11-12T00:36:10.981Z,4.70
2022-11-12T00:37:23.043Z,4.71
2022-11-12T00:38:11.616Z,4.69
2022-11-12T00:39:09.545Z,4.67
2022-11-12T00:40:18.397Z,4.69
2022-11-12T00:41:08.280Z,4.66
2022-11-12T00:41:50.043Z,4.65
2022-11-12T00:43:13.753Z,4.63
2022-11-12T00:43:34.827Z,4.61
2022-11-12T00:44:38.840Z,4.61
2022-11-12T00:45:26.816Z,4.60
2022-11-12T00:46:10.640Z,4.59
2022-11-12T00:47:07.598Z,4.61
2022-11-12T00:48:34.676Z,4.61
2022-11-12T00:49:21.378Z,4.57
2022-11-12T00:50:10.016Z,4.57
2022-11-12T00:51:42.890Z,4.56
2022-11-12T00:52:17.580Z,4.56
2022-11-12T00:53:20.046Z,4.56
2022-11-12T00:54:08.614Z,4.55
2022-11-12T00:55:09.978Z,4.55
2022-11-12T00:55:46.325Z,4.55
2022-11-12T00:56:49.158Z,4.57
2022-11-12T00:57:48.579Z,4.57
2022-11-12T00:58:35.412Z,4.55
2022-11-12T00:59:33.318Z,4.51
2022-11-12T01:00:40.581Z,4.52
2022-11-12T01:01:49.676Z,4.52
2022-11-12T01:02:40.730Z,4.53
2022-11-12T01:03:44.419Z,4.53
2022-11-12T01:04:20.942Z,4.49
2022-11-12T01:04:52.510Z,4.52
2022-11-12T01:05:23.957Z,4.52
2022-11-12T01:05:55.337Z,4.51
2022-11-12T01:06:27.132Z,4.53
2022-11-12T01:06:58.514Z,4.50
2022-11-12T01:07:29.896Z,4.50
2022-11-12T01:08:01.219Z,4.54
2022-11-12T01:08:32.587Z,4.55
2022-11-12T01:09:03.955Z,4.56
2022-11-12T01:09:35.286Z,4.51
2022-11-12T01:10:07.763Z,4.56
2022-11-12T01:10:39.296Z,4.55
2022-11-12T01:11:22.381Z,4.56
2022-11-12T01:11:53.723Z,4.58
2022-11-12T01:12:25.068Z,4.58
2022-11-12T01:12:56.492Z,4.58
2022-11-12T01:13:27.799Z,4.55
2022-11-12T01:14:01.394Z,4.58
2022-11-12T01:14:32.853Z,4.53
2022-11-12T01:15:05.572Z,4.53
2022-11-12T01:15:42.720Z,4.54
2022-11-12T01:16:17.515Z,4.56
2022-11-12T01:16:48.839Z,4.55
2022-11-12T01:17:20.167Z,4.54
2022-11-12T01:17:51.708Z,4.54
2022-11-12T01:18:23.284Z,4.57
2022-11-12T01:18:57.554Z,4.58
2022-11-12T01:19:28.848Z,4.56
2022-11-12T01:20:00.198Z,4.56
2022-11-12T01:20:31.722Z,4.57
2022-11-12T01:21:04.960Z,4.56
2022-11-12T01:21:42.019Z,4.55
2022-11-12T01:22:13.353Z,4.55
2022-11-12T01:22:44.726Z,4.51
2022-11-12T01:23:16.048Z,4.55
2022-11-12T01:23:47.397Z,4.51
2022-11-12T01:24:18.719Z,4.55
2022-11-12T01:24:50.114Z,4.53
2022-11-12T01:25:21.452Z,4.51
2022-11-12T01:25:52.930Z,4.53
2022-11-12T01:26:28.326Z,4.51
2022-11-12T01:26:59.703Z,4.54
2022-11-12T01:27:31.083Z,4.50
2022-11-12T01:28:02.625Z,4.49
2022-11-12T01:28:34.596Z,4.49
2022-11-12T01:29:06.485Z,4.51
2022-11-12T01:29:37.990Z,4.53
2022-11-12T01:30:10.255Z,4.53
2022-11-12T01:30:41.571Z,4.53
2022-11-12T01:31:25.265Z,4.54
2022-11-12T01:31:56.658Z,4.52
2022-11-12T01:32:27.976Z,4.53
2022-11-12T01:32:59.297Z,4.50
2022-11-12T01:33:30.592Z,4.54
2022-11-12T01:34:05.346Z,4.53
2022-11-12T01:34:36.885Z,4.50
2022-11-12T01:35:08.317Z,4.53
2022-11-12T01:35:39.884Z,4.49
2022-11-12T01:36:12.923Z,4.49
2022-11-12T01:36:44.271Z,4.49
2022-11-12T01:37:15.624Z,4.49
2022-11-12T01:37:47.036Z,4.48
2022-11-12T01:38:18.595Z,4.52
2022-11-12T01:38:52.039Z,4.50
2022-11-12T01:39:23.671Z,4.51
2022-11-12T01:39:54.975Z,4.50
2022-11-12T01:40:26.356Z,4.50
2022-11-12T01:40:57.665Z,4.51
2022-11-12T01:41:31.993Z,4.51
2022-11-12T01:42:03.473Z,4.49
2022-11-12T01:42:34.835Z,4.48
2022-11-12T01:43:13.673Z,4.49
2022-11-12T01:43:45.360Z,4.52
2022-11-12T01:44:27.491Z,4.50
2022-11-12T01:45:01.429Z,4.51
2022-11-12T01:45:32.755Z,4.53
2022-11-12T01:46:14.704Z,4.51
2022-11-12T01:47:04.808Z,4.54
2022-11-12T01:47:36.312Z,4.55
2022-11-12T01:48:21.696Z,4.55
2022-11-12T01:48:58.617Z,4.55
2022-11-12T01:49:57.276Z,4.56
2022-11-12T01:50:36.269Z,4.55
2022-11-12T01:51:09.810Z,4.56
2022-11-12T01:51:46.397Z,4.56
2022-11-12T01:52:24.367Z,4.59
2022-11-12T01:53:02.070Z,4.58
2022-11-12T01:53:39.155Z,4.59
2022-11-12T01:54:16.122Z,4.57
2022-11-12T01:54:52.188Z,4.59
2022-11-12T01:55:28.329Z,4.58
2022-11-12T01:56:02.221Z,4.58
2022-11-12T01:56:33.736Z,4.58
2022-11-12T01:57:07.123Z,4.55
2022-11-12T01:57:44.478Z,4.53
2022-11-12T01:58:19.824Z,4.58
2022-11-12T01:58:59.010Z,4.59
2022-11-12T01:59:37.550Z,4.56
2022-11-12T02:00:12.454Z,4.54
2022-11-12T02:00:44.007Z,4.59
2022-11-12T02:01:15.589Z,4.54
2022-11-12T02:01:47.225Z,4.54
2022-11-12T02:02:18.770Z,4.55
2022-11-12T02:02:54.874Z,4.57
2022-11-12T02:03:26.568Z,4.56
2022-11-12T02:03:58.599Z,4.56
2022-11-12T02:04:32.526Z,4.54
2022-11-12T02:05:10.137Z,4.54
2022-11-12T02:05:42.501Z,4.58
2022-11-12T02:06:15.538Z,4.57
2022-11-12T02:06:48.406Z,4.54
2022-11-12T02:07:22.303Z,4.58
2022-11-12T02:07:55.128Z,4.55
2022-11-12T02:08:29.864Z,4.54
2022-11-12T02:09:01.632Z,4.55
2022-11-12T02:09:34.021Z,4.57
2022-11-12T02:10:06.834Z,4.57
2022-11-12T02:10:39.641Z,4.56
2022-11-12T02:11:20.746Z,4.56
2022-11-12T02:11:52.083Z,4.55
2022-11-12T02:12:42.216Z,4.54
2022-11-12T02:13:32.219Z,4.53
2022-11-12T02:14:05.114Z,4.50
2022-11-12T02:14:36.424Z,4.51
2022-11-12T02:15:08.067Z,4.50
2022-11-12T02:15:40.906Z,4.48
2022-11-12T02:16:12.502Z,4.50
2022-11-12T02:16:46.051Z,4.49
2022-11-12T02:17:17.406Z,4.49
2022-11-12T02:17:48.866Z,4.48
2022-11-12T02:18:20.179Z,4.48
2022-11-12T02:18:51.980Z,4.48
2022-11-12T02:19:23.311Z,4.46
2022-11-12T02:19:59.422Z,4.42
2022-11-12T02:20:34.983Z,4.46
2022-11-12T02:21:08.908Z,4.44
2022-11-12T02:21:40.327Z,4.43
2022-11-12T02:22:11.633Z,4.39
2022-11-12T02:22:43.011Z,4.40
2022-11-12T02:23:14.533Z,4.40
2022-11-12T02:23:45.869Z,4.37
2022-11-12T02:24:17.159Z,4.39
2022-11-12T02:24:48.697Z,4.37
2022-11-12T02:25:24.370Z,4.38
2022-11-12T02:25:55.990Z,4.34
2022-11-12T02:26:31.656Z,4.37
2022-11-12T02:27:04.525Z,4.36
2022-11-12T02:27:35.985Z,4.33
2022-11-12T02:28:08.363Z,4.30
2022-11-12T02:28:40.408Z,4.33
2022-11-12T02:29:12.097Z,4.34
2022-11-12T02:29:46.396Z,4.32
2022-11-12T02:30:20.903Z,4.33
2022-11-12T02:30:52.306Z,4.28
2022-11-12T02:31:23.652Z,4.29
2022-11-12T02:31:55.005Z,4.31
2022-11-12T02:32:26.348Z,4.30
2022-11-12T02:32:57.834Z,4.28
2022-11-12T02:33:29.163Z,4.29
2022-11-12T02:34:01.092Z,4.29
2022-11-12T02:34:32.418Z,4.27
2022-11-12T02:35:03.998Z,4.27
2022-11-12T02:35:37.794Z,4.26
2022-11-12T02:36:09.392Z,4.23
2022-11-12T02:36:40.914Z,4.27
2022-11-12T02:37:12.274Z,4.24
2022-11-12T02:37:43.600Z,4.23
2022-11-12T02:38:14.973Z,4.23
2022-11-12T02:38:46.360Z,4.21
2022-11-12T02:39:18.739Z,4.22
2022-11-12T02:39:50.069Z,4.19
2022-11-12T02:40:21.991Z,4.20
2022-11-12T02:40:53.511Z,4.19
2022-11-12T02:41:25.343Z,4.16
2022-11-12T02:41:56.770Z,4.17
2022-11-12T02:42:28.196Z,4.14
2022-11-12T02:43:00.069Z,4.13
2022-11-12T02:43:31.401Z,4.12
2022-11-12T02:44:02.978Z,4.11
2022-11-12T02:44:34.352Z,4.12
2022-11-12T02:45:06.094Z,4.10
2022-11-12T02:45:37.462Z,4.08
2022-11-12T02:46:08.864Z,4.02
2022-11-12T02:46:40.202Z,4.00
2022-11-12T02:47:11.594Z,4.00
2022-11-12T02:47:43.065Z,4.02
2022-11-12T02:48:19.059Z,4.03
2022-11-12T02:48:50.758Z,4.06
2022-11-12T02:49:24.723Z,4.07
2022-11-12T02:49:56.079Z,4.04
2022-11-12T02:50:27.450Z,4.06
2022-11-12T02:50:58.857Z,4.03
2022-11-12T02:51:30.191Z,4.03
2022-11-12T02:52:01.719Z,4.06
2022-11-12T02:52:33.064Z,4.08
2022-11-12T02:53:04.509Z,4.03
2022-11-12T02:53:36.053Z,4.04
2022-11-12T02:54:07.409Z,4.03
2022-11-12T02:54:38.736Z,4.09
2022-11-12T02:55:12.470Z,4.08
2022-11-12T02:55:44.022Z,4.09
2022-11-12T02:56:15.355Z,4.05
2022-11-12T02:56:46.749Z,4.04
2022-11-12T02:57:18.182Z,4.04
2022-11-12T02:57:49.721Z,4.03
2022-11-12T02:58:22.573Z,4.08
2022-11-12T02:58:54.011Z,4.07
2022-11-12T02:59:25.345Z,4.05
2022-11-12T02:59:56.673Z,4.07
2022-11-12T03:00:28.015Z,4.07
2022-11-12T03:00:59.387Z,4.05
2022-11-12T03:01:30.851Z,4.08
2022-11-12T03:02:02.264Z,4.07
2022-11-12T03:02:33.610Z,4.07
2022-11-12T03:03:04.937Z,4.09
2022-11-12T03:03:36.284Z,4.08
2022-11-12T03:04:07.787Z,4.04
2022-11-12T03:04:39.206Z,4.03
2022-11-12T03:05:11.998Z,4.03
2022-11-12T03:05:44.466Z,4.05
2022-11-12T03:06:15.917Z,4.02
2022-11-12T03:06:47.367Z,4.01
2022-11-12T03:07:18.896Z,4.02
2022-11-12T03:07:50.281Z,4.03
2022-11-12T03:08:21.766Z,3.98
2022-11-12T03:08:53.118Z,3.96
2022-11-12T03:09:24.471Z,4.00
2022-11-12T03:09:55.924Z,3.96
2022-11-12T03:10:28.728Z,3.99
2022-11-12T03:11:06.374Z,3.96
2022-11-12T03:11:38.241Z,3.99
2022-11-12T03:12:09.785Z,3.97
2022-11-12T03:12:41.108Z,3.97
2022-11-12T03:13:12.451Z,3.99
2022-11-12T03:13:44.142Z,3.99
2022-11-12T03:14:15.815Z,3.97
2022-11-12T03:14:47.181Z,3.94
2022-11-12T03:15:18.617Z,3.97
2022-11-12T03:15:49.949Z,3.99
2022-11-12T03:16:21.380Z,3.96
2022-11-12T03:16:52.719Z,3.95
2022-11-12T03:17:24.265Z,3.97
2022-11-12T03:17:57.660Z,3.93
2022-11-12T03:18:29.332Z,3.97
2022-11-12T03:19:00.846Z,3.97
2022-11-12T03:19:32.177Z,3.93
2022-11-12T03:20:03.877Z,3.94
2022-11-12T03:20:35.244Z,3.97
2022-11-12T03:21:06.770Z,3.95
2022-11-12T03:21:38.114Z,3.92
2022-11-12T03:22:09.472Z,3.94
2022-11-12T03:22:41.678Z,3.93
2022-11-12T03:23:13.250Z,3.95
2022-11-12T03:23:44.559Z,3.95
2022-11-12T03:24:15.916Z,3.94
2022-11-12T03:24:47.461Z,3.93
2022-11-12T03:25:18.802Z,3.87
2022-11-12T03:25:50.220Z,3.89
2022-11-12T03:26:21.618Z,3.89
2022-11-12T03:26:52.968Z,3.91
2022-11-12T03:27:24.489Z,3.87
2022-11-12T03:28:04.826Z,3.90
2022-11-12T03:28:36.198Z,3.89
2022-11-12T03:29:07.543Z,3.88
2022-11-12T03:29:38.971Z,3.87
2022-11-12T03:30:10.859Z,3.85
2022-11-12T03:30:43.468Z,3.89
2022-11-12T03:31:14.773Z,3.85
2022-11-12T03:31:46.130Z,3.87
2022-11-12T03:32:17.446Z,3.85
2022-11-12T03:32:48.751Z,3.85
2022-11-12T03:33:20.105Z,3.82
2022-11-12T03:33:51.468Z,3.83
2022-11-12T03:34:22.883Z,3.83
2022-11-12T03:34:55.611Z,3.83
2022-11-12T03:35:27.312Z,3.77
2022-11-12T03:35:58.684Z,3.83
2022-11-12T03:36:30.397Z,3.82
2022-11-12T03:37:01.770Z,3.78
2022-11-12T03:37:33.173Z,3.79
2022-11-12T03:38:05.804Z,3.80
2022-11-12T03:38:37.281Z,3.83
2022-11-12T03:39:08.676Z,3.83
2022-11-12T03:39:40.025Z,3.80
2022-11-12T03:40:11.467Z,3.78
2022-11-12T03:40:42.828Z,3.81
2022-11-12T03:41:14.188Z,3.76
2022-11-12T03:41:45.531Z,3.80
2022-11-12T03:42:16.930Z,3.74
2022-11-12T03:42:50.018Z,3.78
2022-11-12T03:43:21.404Z,3.76
2022-11-12T03:43:52.952Z,3.73
2022-11-12T03:44:24.257Z,3.75
2022-11-12T03:44:55.565Z,3.75
2022-11-12T03:45:28.212Z,3.74
2022-11-12T03:45:59.577Z,3.72
2022-11-12T03:46:30.942Z,3.74
2022-11-12T03:47:02.260Z,3.72
2022-11-12T03:47:33.598Z,3.70
2022-11-12T03:48:05.255Z,3.71
2022-11-12T03:48:36.623Z,3.69
2022-11-12T03:49:07.979Z,3.73
2022-11-12T03:49:39.343Z,3.74
2022-11-12T03:50:12.356Z,3.75
2022-11-12T03:50:43.720Z,3.71
2022-11-12T03:51:16.507Z,3.75
2022-11-12T03:51:47.879Z,3.75
2022-11-12T03:52:19.199Z,3.75
2022-11-12T03:52:53.612Z,3.76
2022-11-12T03:53:25.430Z,3.75
2022-11-12T03:53:56.934Z,3.72
2022-11-12T03:54:28.255Z,3.77
2022-11-12T03:55:05.987Z,3.78
2022-11-12T03:55:37.386Z,3.77
2022-11-12T03:56:08.751Z,3.76
2022-11-12T03:56:40.609Z,3.77
2022-11-12T03:57:12.078Z,3.76
2022-11-12T03:57:43.826Z,3.77
2022-11-12T03:58:15.186Z,3.77
2022-11-12T03:58:46.564Z,3.75
2022-11-12T03:59:17.872Z,3.77
2022-11-12T03:59:49.190Z,3.72
2022-11-12T04:00:22.080Z,3.76
2022-11-12T04:00:53.520Z,3.72
2022-11-12T04:01:25.020Z,3.76
2022-11-12T04:01:56.407Z,3.77
2022-11-12T04:02:29.943Z,3.78
2022-11-12T04:03:01.354Z,3.77
2022-11-12T04:03:32.744Z,3.73
2022-11-12T04:04:04.203Z,3.76
2022-11-12T04:04:54.259Z,3.78
2022-11-12T04:05:45.401Z,3.77
2022-11-12T04:06:35.500Z,3.77
2022-11-12T04:07:25.198Z,3.78
2022-11-12T04:08:20.438Z,3.76
2022-11-12T04:08:51.720Z,3.76
2022-11-12T04:09:23.010Z,3.76
2022-11-12T04:09:54.285Z,3.77
2022-11-12T04:10:25.976Z,3.76
2022-11-12T04:10:57.418Z,3.76
2022-11-12T04:11:28.703Z,3.74
2022-11-12T04:12:19.987Z,3.73
2022-11-12T04:13:09.903Z,3.72
2022-11-12T04:13:43.065Z,3.71
2022-11-12T04:14:14.485Z,3.70
2022-11-12T04:14:45.792Z,3.70
2022-11-12T04:15:17.143Z,3.72
2022-11-12T04:16:08.419Z,3.71
2022-11-12T04:16:58.134Z,3.71
2022-11-12T04:17:48.075Z,3.68
2022-11-12T04:18:37.979Z,3.66
2022-11-12T04:19:31.535Z,3.66
2022-11-12T04:20:21.875Z,3.65
2022-11-12T04:21:11.556Z,3.65
2022-11-12T04:21:52.230Z,3.64
2022-11-12T04:22:23.611Z,3.63
2022-11-12T04:22:54.908Z,3.64
2022-11-12T04:23:26.267Z,3.62
2022-11-12T04:23:57.567Z,3.63
2022-11-12T04:25:05.568Z,3.63
2022-11-12T04:25:56.843Z,3.63
2022-11-12T04:26:28.137Z,3.63
2022-11-12T04:26:59.764Z,3.65
2022-11-12T04:27:33.848Z,3.65
2022-11-12T04:28:05.164Z,3.65
2022-11-12T04:28:36.543Z,3.65
2022-11-12T04:29:26.778Z,3.65
2022-11-12T04:30:16.810Z,3.65
2022-11-12T04:30:48.099Z,3.66
2022-11-12T04:31:19.431Z,3.65
2022-11-12T04:31:50.953Z,3.66
2022-11-12T04:32:22.616Z,3.66
2022-11-12T04:32:55.534Z,3.65
2022-11-12T04:33:26.867Z,3.65
2022-11-12T04:34:18.191Z,3.65
2022-11-12T04:34:49.814Z,3.67
2022-11-12T04:35:25.745Z,3.67
2022-11-12T04:35:57.111Z,3.65
2022-11-12T04:36:28.428Z,3.64
2022-11-12T04:36:59.940Z,3.65
2022-11-12T04:37:44.271Z,3.61
2022-11-12T04:38:15.955Z,3.61
2022-11-12T04:38:47.252Z,3.59
2022-11-12T04:39:18.754Z,3.60
2022-11-12T04:39:50.603Z,3.59
2022-11-12T04:40:46.072Z,3.56
2022-11-12T04:41:36.122Z,3.58
2022-11-12T04:42:28.324Z,3.58
2022-11-12T04:43:19.735Z,3.57
2022-11-12T04:44:09.470Z,3.54
2022-11-12T04:44:59.841Z,3.53
2022-11-12T04:45:31.190Z,3.50
2022-11-12T04:46:04.244Z,3.49
2022-11-12T04:46:35.570Z,3.48
2022-11-12T04:47:06.960Z,3.47
2022-11-12T04:47:41.464Z,3.47
2022-11-12T04:48:12.891Z,3.44
2022-11-12T04:48:44.248Z,3.45
2022-11-12T04:49:15.548Z,3.44
2022-11-12T04:49:46.934Z,3.45
2022-11-12T04:50:18.859Z,3.43
2022-11-12T04:50:54.536Z,3.44
2022-11-12T04:51:44.466Z,3.43
2022-11-12T04:52:15.900Z,3.43
2022-11-12T04:52:47.239Z,3.43
2022-11-12T04:53:18.870Z,3.43
2022-11-12T04:53:50.519Z,3.41
2022-11-12T04:54:21.889Z,3.41
2022-11-12T04:54:53.847Z,3.41
2022-11-12T04:55:25.209Z,3.37
2022-11-12T04:55:58.315Z,3.36
2022-11-12T04:56:29.655Z,3.38
2022-11-12T04:57:01.151Z,3.39
2022-11-12T04:57:32.625Z,3.44
2022-11-12T04:58:04.037Z,3.40
2022-11-12T04:58:35.563Z,3.41
2022-11-12T04:59:06.908Z,3.45
2022-11-12T04:59:38.435Z,3.42
2022-11-12T05:00:11.243Z,3.46
2022-11-12T05:00:42.569Z,3.45
2022-11-12T05:01:13.982Z,3.47
2022-11-12T05:01:45.476Z,3.47
2022-11-12T05:02:17.577Z,3.46
2022-11-12T05:02:51.503Z,3.45
2022-11-12T05:03:22.923Z,3.47
2022-11-12T05:03:54.235Z,3.46
2022-11-12T05:04:29.128Z,3.44
2022-11-12T05:05:00.478Z,3.45
2022-11-12T05:05:34.056Z,3.45
2022-11-12T05:06:29.883Z,3.45
2022-11-12T05:07:01.671Z,3.41
2022-11-12T05:07:33.945Z,3.43
2022-11-12T05:08:05.372Z,3.43
2022-11-12T05:08:36.786Z,3.41
2022-11-12T05:09:08.322Z,3.43
2022-11-12T05:09:40.301Z,3.39
2022-11-12T05:10:14.214Z,3.43
2022-11-12T05:10:45.558Z,3.38
2022-11-12T05:11:16.996Z,3.38
2022-11-12T05:11:48.485Z,3.41
2022-11-12T05:12:19.883Z,3.42
2022-11-12T05:12:51.336Z,3.37
2022-11-12T05:13:22.692Z,3.39
2022-11-12T05:13:54.006Z,3.36
2022-11-12T05:14:25.472Z,3.40
2022-11-12T05:14:56.956Z,3.34
2022-11-12T05:15:28.343Z,3.35
2022-11-12T05:15:59.684Z,3.36
2022-11-12T05:16:31.033Z,3.31
2022-11-12T05:17:02.643Z,3.35
2022-11-12T05:17:33.963Z,3.35
2022-11-12T05:18:05.294Z,3.35
2022-11-12T05:18:36.604Z,3.31
2022-11-12T05:19:08.280Z,3.29
2022-11-12T05:19:39.631Z,3.31
2022-11-12T05:20:12.369Z,3.30
2022-11-12T05:20:43.711Z,3.28
2022-11-12T05:21:33.537Z,3.30
2022-11-12T05:22:17.359Z,3.30
2022-11-12T05:23:08.715Z,3.30
2022-11-12T05:23:40.091Z,3.30
2022-11-12T05:24:22.367Z,3.30
2022-11-12T05:25:03.307Z,3.29
2022-11-12T05:25:35.813Z,3.29
2022-11-12T05:26:07.154Z,3.27
2022-11-12T05:26:38.525Z,3.30
2022-11-12T05:27:19.826Z,3.31
2022-11-12T05:27:51.171Z,3.27
2022-11-12T05:28:22.585Z,3.28
2022-11-12T05:28:54.371Z,3.27
2022-11-12T05:29:25.780Z,3.30
2022-11-12T05:29:57.111Z,3.26
2022-11-12T05:30:28.470Z,3.27
2022-11-12T05:30:59.820Z,3.26
2022-11-12T05:31:31.633Z,3.27
2022-11-12T05:32:04.125Z,3.30
2022-11-12T05:32:35.468Z,3.29
2022-11-12T05:33:07.347Z,3.29
2022-11-12T05:33:38.697Z,3.27
2022-11-12T05:34:10.221Z,3.25
2022-11-12T05:34:42.354Z,3.28
2022-11-12T05:35:13.718Z,3.29
2022-11-12T05:35:45.027Z,3.29
2022-11-12T05:36:16.364Z,3.27
2022-11-12T05:36:47.719Z,3.29
2022-11-12T05:37:19.295Z,3.29
2022-11-12T05:37:50.615Z,3.28
2022-11-12T05:38:22.205Z,3.24
2022-11-12T05:38:53.540Z,3.28
2022-11-12T05:39:25.550Z,3.28
2022-11-12T05:39:56.980Z,3.26
2022-11-12T05:40:28.522Z,3.25
2022-11-12T05:40:59.875Z,3.28
2022-11-12T05:41:51.069Z,3.26
2022-11-12T05:42:23.213Z,3.25
2022-11-12T05:42:54.535Z,3.28
2022-11-12T05:43:25.933Z,3.26
2022-11-12T05:43:57.399Z,3.29
2022-11-12T05:44:28.775Z,3.25
2022-11-12T05:45:00.252Z,3.27
2022-11-12T05:45:31.653Z,3.25
2022-11-12T05:46:04.040Z,3.25
2022-11-12T05:46:35.403Z,3.26
2022-11-12T05:47:06.867Z,3.24
2022-11-12T05:47:38.388Z,3.25
2022-11-12T05:48:09.713Z,3.22
2022-11-12T05:48:41.050Z,3.26
2022-11-12T05:49:12.462Z,3.25
2022-11-12T05:49:43.839Z,3.25
2022-11-12T05:50:15.197Z,3.22
2022-11-12T05:51:11.842Z,3.25
2022-11-12T05:51:42.111Z,3.23
2022-11-12T05:52:13.414Z,3.23
2022-11-12T05:52:45.317Z,3.23
2022-11-12T05:53:35.307Z,3.22
2022-11-12T05:54:06.641Z,3.20
2022-11-12T05:54:37.981Z,3.21
2022-11-12T05:55:09.494Z,3.21
2022-11-12T05:55:40.833Z,3.20
2022-11-12T05:56:12.286Z,3.21
2022-11-12T05:56:43.692Z,3.20
2022-11-12T05:57:15.192Z,3.20
2022-11-12T05:57:46.731Z,3.19
2022-11-12T05:58:18.167Z,3.22
2022-11-12T05:58:49.583Z,3.22
2022-11-12T05:59:20.985Z,3.19
2022-11-12T05:59:52.397Z,3.21
2022-11-12T06:00:25.841Z,3.19
2022-11-12T06:00:57.458Z,3.21
2022-11-12T06:01:28.919Z,3.21
2022-11-12T06:02:00.340Z,3.18
2022-11-12T06:02:50.151Z,3.21
2022-11-12T06:03:21.493Z,3.18
2022-11-12T06:03:52.851Z,3.20
2022-11-12T06:04:24.447Z,3.17
2022-11-12T06:04:55.785Z,3.15
2022-11-12T06:05:27.177Z,3.18
2022-11-12T06:05:59.139Z,3.18
2022-11-12T06:06:32.586Z,3.17
2022-11-12T06:07:04.349Z,3.13
2022-11-12T06:07:35.732Z,3.16
2022-11-12T06:08:07.473Z,3.17
2022-11-12T06:08:41.182Z,3.15
2022-11-12T06:09:12.821Z,3.13
2022-11-12T06:09:44.218Z,3.11
2022-11-12T06:10:20.305Z,3.12
2022-11-12T06:10:53.280Z,3.14
2022-11-12T06:11:24.640Z,3.10
2022-11-12T06:11:56.018Z,3.10
2022-11-12T06:12:27.608Z,3.10
2022-11-12T06:12:59.235Z,3.08
2022-11-12T06:13:30.718Z,3.08
2022-11-12T06:14:02.421Z,3.13
2022-11-12T06:14:33.866Z,3.07
2022-11-12T06:15:09.024Z,3.06
2022-11-12T06:15:41.150Z,3.09
2022-11-12T06:16:12.790Z,3.08
2022-11-12T06:16:44.174Z,3.11
2022-11-12T06:17:18.424Z,3.06
2022-11-12T06:17:49.768Z,3.08
2022-11-12T06:18:22.445Z,3.05
2022-11-12T06:18:53.973Z,3.09
2022-11-12T06:19:27.715Z,3.04
2022-11-12T06:19:59.054Z,3.07
2022-11-12T06:20:32.585Z,3.07
2022-11-12T06:21:24.388Z,3.07
2022-11-12T06:21:55.708Z,3.07
2022-11-12T06:22:27.320Z,3.08
2022-11-12T06:22:58.713Z,3.06
2022-11-12T06:23:30.095Z,2.99
2022-11-12T06:24:01.447Z,2.98
2022-11-12T06:24:35.267Z,2.99
2022-11-12T06:25:09.310Z,2.98
2022-11-12T06:25:40.676Z,2.98
2022-11-12T06:26:12.347Z,2.98
2022-11-12T06:26:43.698Z,2.97
2022-11-12T06:27:15.012Z,2.99
2022-11-12T06:27:46.356Z,2.99
2022-11-12T06:28:17.962Z,2.99
2022-11-12T06:28:50.048Z,3.02
2022-11-12T06:29:21.471Z,3.00
2022-11-12T06:29:54.640Z,3.03
2022-11-12T06:30:26.024Z,3.02
2022-11-12T06:30:57.488Z,3.02
2022-11-12T06:31:28.815Z,3.00
2022-11-12T06:32:00.233Z,2.99
2022-11-12T06:32:31.621Z,3.03
2022-11-12T06:33:03.004Z,3.01
2022-11-12T06:33:34.417Z,3.02
2022-11-12T06:34:07.013Z,3.02
2022-11-12T06:34:38.357Z,3.05
2022-11-12T06:35:09.815Z,3.04
2022-11-12T06:35:43.102Z,3.00
2022-11-12T06:36:17.101Z,3.03
2022-11-12T06:36:49.155Z,3.00
2022-11-12T06:37:21.986Z,3.02
2022-11-12T06:37:53.882Z,3.02
2022-11-12T06:38:25.516Z,3.05
2022-11-12T06:38:57.312Z,3.02
2022-11-12T06:39:28.624Z,3.03
2022-11-12T06:40:00.030Z,3.03
2022-11-12T06:40:31.395Z,3.06
2022-11-12T06:41:03.702Z,3.06
2022-11-12T06:41:35.073Z,3.02
2022-11-12T06:42:06.464Z,3.02
2022-11-12T06:42:37.887Z,3.05
2022-11-12T06:43:09.273Z,3.00
2022-11-12T06:43:41.560Z,3.04
2022-11-12T06:44:14.672Z,3.05
2022-11-12T06:44:49.133Z,3.04
2022-11-12T06:45:20.454Z,3.05
2022-11-12T06:45:51.792Z,3.05
2022-11-12T06:46:23.171Z,3.04
2022-11-12T06:46:54.649Z,3.04
2022-11-12T06:47:26.137Z,3.01
2022-11-12T06:47:59.058Z,3.06
2022-11-12T06:48:31.137Z,3.06
2022-11-12T06:49:02.585Z,3.05
2022-11-12T06:49:33.944Z,3.01
2022-11-12T06:50:05.752Z,3.01
2022-11-12T06:50:37.163Z,2.99
2022-11-12T06:51:19.998Z,3.05
2022-11-12T06:51:51.756Z,3.05
2022-11-12T06:52:23.385Z,3.05
2022-11-12T06:52:59.257Z,3.00
2022-11-12T06:53:30.603Z,3.01
2022-11-12T06:54:02.023Z,2.99
2022-11-12T06:54:33.389Z,3.00
2022-11-12T06:55:05.290Z,3.00
2022-11-12T06:55:36.679Z,3.01
2022-11-12T06:56:08.494Z,3.02
2022-11-12T06:56:39.811Z,3.02
2022-11-12T06:57:11.348Z,2.99
2022-11-12T06:57:42.673Z,3.00
2022-11-12T06:58:14.025Z,3.01
2022-11-12T06:58:45.370Z,3.01
2022-11-12T06:59:16.909Z,3.00
2022-11-12T06:59:48.371Z,2.98
2022-11-12T07:00:20.571Z,2.99
2022-11-12T07:00:52.007Z,3.01
2022-11-12T07:01:26.427Z,2.97
2022-11-12T07:01:57.773Z,3.02
2022-11-12T07:02:29.124Z,3.00
2022-11-12T07:03:05.151Z,2.99
2022-11-12T07:03:37.134Z,3.02
2022-11-12T07:04:08.473Z,3.01
2022-11-12T07:04:39.783Z,3.00
2022-11-12T07:05:11.088Z,3.02
2022-11-12T07:05:42.655Z,2.98
2022-11-12T07:06:19.034Z,3.01
2022-11-12T07:06:50.631Z,2.97
2022-11-12T07:07:22.114Z,2.95
2022-11-12T07:07:54.582Z,2.98
2022-11-12T07:08:26.159Z,2.99
2022-11-12T07:08:57.844Z,2.97
2022-11-12T07:09:29.262Z,2.99
2022-11-12T07:10:00.581Z,2.97
2022-11-12T07:10:32.752Z,2.98
2022-11-12T07:11:05.350Z,2.95
2022-11-12T07:11:36.745Z,2.96
2022-11-12T07:12:11.264Z,2.98
2022-11-12T07:12:42.712Z,3.01
2022-11-12T07:13:14.383Z,2.96
2022-11-12T07:13:46.809Z,3.02
2022-11-12T07:14:18.162Z,3.02
2022-11-12T07:14:50.229Z,2.97
2022-11-12T07:15:21.604Z,2.98
2022-11-12T07:15:57.725Z,3.00
2022-11-12T07:16:29.104Z,2.97
2022-11-12T07:17:00.701Z,3.02
2022-11-12T07:17:32.075Z,2.99
2022-11-12T07:18:03.529Z,3.00
2022-11-12T07:18:38.210Z,2.95
2022-11-12T07:19:09.621Z,2.98
2022-11-12T07:19:40.979Z,2.99
2022-11-12T07:20:13.462Z,2.96
2022-11-12T07:20:44.820Z,2.94
2022-11-12T07:21:20.526Z,2.99
2022-11-12T07:21:52.124Z,2.98
2022-11-12T07:22:23.523Z,2.96
2022-11-12T07:22:54.897Z,2.96
2022-11-12T07:23:27.306Z,2.98
2022-11-12T07:23:58.691Z,2.97
2022-11-12T07:24:30.075Z,2.95
2022-11-12T07:25:01.487Z,2.98
2022-11-12T07:25:32.858Z,2.94
2022-11-12T07:26:36.037Z,2.99
2022-11-12T07:27:07.333Z,2.99
2022-11-12T07:27:38.710Z,2.95
2022-11-12T07:28:10.592Z,2.99
2022-11-12T07:28:42.693Z,2.99
2022-11-12T07:29:24.881Z,3.00
2022-11-12T07:30:06.345Z,3.00
2022-11-12T07:30:37.962Z,3.02
2022-11-12T07:31:14.031Z,3.02
2022-11-12T07:31:45.410Z,3.02
2022-11-12T07:32:16.749Z,3.02
2022-11-12T07:32:51.807Z,3.03
2022-11-12T07:33:24.063Z,3.04
2022-11-12T07:33:55.635Z,3.03
2022-11-12T07:35:16.038Z,3.08
2022-11-12T07:35:47.338Z,3.08
2022-11-12T07:36:20.512Z,3.09
2022-11-12T07:36:51.836Z,3.08
2022-11-12T07:37:23.176Z,3.07
2022-11-12T07:37:59.429Z,3.09
2022-11-12T07:38:33.089Z,3.11
2022-11-12T07:39:05.673Z,3.09
2022-11-12T07:39:37.061Z,3.08
2022-11-12T07:40:10.992Z,3.08
2022-11-12T07:40:42.502Z,3.08
2022-11-12T07:41:19.444Z,3.15
2022-11-12T07:41:51.650Z,3.15
2022-11-12T07:42:23.196Z,3.15
2022-11-12T07:42:54.543Z,3.15
2022-11-12T07:43:26.394Z,3.16
2022-11-12T07:43:57.744Z,3.15
2022-11-12T07:44:29.278Z,3.19
2022-11-12T07:45:00.771Z,3.22
2022-11-12T07:45:32.277Z,3.23
2022-11-12T07:46:11.003Z,3.22
2022-11-12T07:46:42.539Z,3.24
2022-11-12T07:47:13.845Z,3.24
2022-11-12T07:47:45.153Z,3.25
2022-11-12T07:48:16.512Z,3.26
2022-11-12T07:48:48.593Z,3.24
2022-11-12T07:49:19.971Z,3.26
2022-11-12T07:49:51.321Z,3.23
2022-11-12T07:50:22.927Z,3.23
2022-11-12T07:51:00.704Z,3.23
2022-11-12T07:51:32.341Z,3.27
2022-11-12T07:52:07.138Z,3.24
2022-11-12T07:52:40.531Z,3.23
2022-11-12T07:53:30.178Z,3.24
2022-11-12T07:54:04.047Z,3.24
2022-11-12T07:54:35.504Z,3.28
2022-11-12T07:55:15.391Z,3.26
2022-11-12T07:56:01.661Z,3.25